AirNav   TITAN Aviation Fuels
 
 488 users online  

52J Lee County Airport-Butters Field
Bishopville, South Carolina, USA

GOING TO BISHOPVILLE?


FAA INFORMATION EFFECTIVE 15 JULY 2021

Location

FAA Identifier: 52J
Lat/Long: 34-14-40.1460N 080-14-09.7210W
34-14.669100N 080-14.162017W
34.2444850,-80.2360336
(estimated)
Elevation: 211 ft. / 64.3 m (surveyed)
Variation: 05W (1985)
From city: 2 miles N of BISHOPVILLE, SC
Time zone: UTC -4 (UTC -5 during Standard Time)
Zip code: 29010

Airport Operations

Airport use: Open to the public
Activation date: 02/1947
Control tower: no
ARTCC: JACKSONVILLE CENTER
FSS: ANDERSON FLIGHT SERVICE STATION
NOTAMs facility: AND (NOTAM-D service available)
Attendance: UNATNDD
Wind indicator: lighted
Segmented circle: yes
Lights: ACTVT MIRL RY 6/24 & PAPI RY 06 AND RY 24 - CTAF.
Beacon: white-green (lighted land airport)
Operates sunset to sunrise.

Airport Communications

CTAF: 122.9
WX AWOS-3 at HVS (11 nm NE): 118.225 (843-339-9625)
WX AWOS-3 at SMS (16 nm SW): 118.075 (803-469-6750)
WX AWOS-3 at CDN (16 nm W): 119.975 (803-424-1979)

Nearby radio navigation aids

VOR radial/distance  VOR name  Freq  Var
CTFr178/24.4CHESTERFIELD VOR/DME108.2003W
FLOr274/28.7FLORENCE VORTAC115.2003W
MMTr064/34.1MC ENTIRE VORTAC113.2008W

 
NDB name  Hdg/Dist  Freq  Var  ID
HARTSVILLE218/11.334107WHVS .... ...- ...
SUMTER029/16.425207WSMS ... -- ...
DARLINGTON241/21.024506WUDG ..- -.. --.
EVANS321/33.042006WCFY -.-. ..-. -.--
BENNETTSVILLE236/33.623008WBES -... . ...
MANNING004/39.438106WMNI -- -. ..

Airport Services

Fuel available: 100LL
100LL:FUEL 24 HR CREDIT CARD SVC AVBL. FOR ASSISTANCE CALL 803-484-3296/229-2679.
Parking: tiedowns
Airframe service: NONE
Powerplant service: NONE
Bottled oxygen: NONE
Bulk oxygen: NONE

Runway Information

Runway 6/24

Dimensions: 3200 x 60 ft. / 975 x 18 m
Surface: asphalt, in good condition
Weight bearing capacity: 
Single wheel: 12.5
Double wheel: 25.0
Runway edge lights: medium intensity
RUNWAY 6  RUNWAY 24
Latitude: 34-14.501500N34-14.836667N
Longitude: 080-14.407500W080-13.916500W
Elevation: 211.0 ft.188.0 ft.
Traffic pattern: leftleft
Markings: basic, in fair conditionbasic, in fair condition
Visual slope indicator: 2-light PAPI on left (3.00 degrees glide path)
PAPI RY 06 AND 24 UNUSBL BYD 6 DEG LEFT OF CNTRLN.
2-light PAPI on left (3.00 degrees glide path)
Touchdown point: yes, no lightsyes, no lights
Obstructions: 25 ft. trees, 572 ft. from runway, 112 ft. left of centerline, 14:1 slope to clear
TREES 19' HIGH 105' LEFT OF CNTLN 142' FROM RWY END
22 ft. trees, 340 ft. from runway, 90 ft. right of centerline, 6:1 slope to clear

Airport Ownership and Management from official FAA records

Ownership: Publicly-owned
Owner: LEE COUNTY
123 S. MAIN ST
BISHOPVILLE, SC 29010
Phone 803-484-5341
Manager: GEORGE ROBERTS
412 MEADOWS LANE
BISHOPVILLE, SC 29010
Phone 803-229-2679

Airport Operational Statistics

Aircraft based on the field: 10
Single engine airplanes: 9
Multi engine airplanes: 1
    
Aircraft operations: avg 58/month *
62% transient general aviation
38% local general aviation
* for 12-month period ending 19 September 2020

Additional Remarks

WILDLIFE ON AND INVOF ARPT.
FOR CD CTC SHAW APCH AT 803-895-4884, WHEN APCH CLSD CTC JACKSONVILLE ARTCC AT 904-845-1592.

Instrument Procedures

There are no published instrument procedures at 52J.

Some nearby airports with instrument procedures:

KHVS - Hartsville Regional Airport (11 nm NE)
KSMS - Sumter Airport (16 nm SW)
KCDN - Woodward Field Airport (16 nm W)
KSSC - Shaw Air Force Base (20 nm SW)
KUDG - Darlington County Airport (21 nm NE)
 
Loc | Ops | Rwys | IFR | FBO | Links
Com | Nav | Svcs | Stats | Notes
Area around 52J (Lee County Airport-Butters Field)
 
Road maps at: MapQuest Bing Google
 
Aerial photo
WARNING: Photo may not be current or correct
Aerial photo of 52J (Lee County Airport-Butters Field)
Photo by King Martin
Photo taken 25-Jan-2016
looking southwest.

Do you have a better or more recent aerial photo of Lee County Airport-Butters Field that you would like to share? If so, please send us your photo.

 
Sectional chart

 
Airport distance calculator
Flying to Lee County Airport-Butters Field? Find the distance to fly.

From to 52J

Sunrise and sunset
Times for 03-Aug-2021
 Local
(UTC-4)
 Zulu
(UTC)
Morning civil twilight06:0710:07
Sunrise06:3410:34
Sunset20:2000:20
Evening civil twilight20:4700:47

Current date and time
Zulu (UTC)  03-Aug-2021 10:04:45
Local (UTC-4)  03-Aug-2021 06:04:45
 
METAR
KHVS 
11nm NE 
030955Z AUTO 05008KT 10SM OVC005 23/22 A2997 RMK AO2
KSMS 
16nm SW 
030955Z AUTO 00000KT 5SM -DZ OVC005 23/23 A2997 RMK AO2
KCDN 
16nm W 
030955Z AUTO 00000KT 6SM -DZ OVC008 23/22 A2998 RMK AO2
KSSC 
20nm SW 
030928Z AUTO 05005KT 6SM -DZ BR OVC006 23/22 A2994 RMK AO2 DZB0857E19DZB28 SLP138 $
KUDG 
21nm NE 
030856Z AUTO 05006KT 10SM OVC007 23/23 A2997 RMK AO2 SLP148 T02330228 58007 $
TAF
KSSC 
20nm SW 
030700Z 0307/0413 32006KT 9999 SCT030 BKN040 QNH2993INS BECMG 0312/0313 04009KT 6000 -RA BR OVC005 QNH2995INS TEMPO 0313/0318 18015G25KT 4800 -TSRA BKN030CB BECMG 0317/0318 06009KT 8000 -SHRA VCTS BKN010CB QNH2991INS BECMG 0400/0401 04007KT 9999 NSW BKN005 QNH2992INS TX24/0312Z TN21/0401Z
KFLO 
25nm E 
030541Z 0306/0406 06005KT P6SM FEW025 BKN250 FM031100 06004KT 6SM -SHRA BR BKN009 OVC025 FM031400 05004KT 5SM -SHRA BR SCT010 OVC020 FM031700 03009KT 4SM -SHRA BR OVC015 PROB30 0318/0324 2SM +SHRA BR OVC007 FM040000 04005KT 5SM BR OVC007 PROB30 0400/0401 4SM -RA BR OVC007
NOTAMs
Click for the latest NOTAMs
NOTAMs are issued by the DoD/FAA and will open in a separate window not controlled by AirNav.

 

 
 

FBO, Fuel Providers, and Aircraft Ground Support

  
 Business Name 
 
 Contact 
 
 Services / Description 
 
Fuel Prices
 
Comments
  
Lee County (self-serve fuel) 803-484-3296
no information available

If you are affiliated with Lee County (self-serve fuel) and would like to show here your services, contact info, web link, logo, and more, click here
100LL
SS $4.70 
 Updated 19-Jul-2021
 
   write
SS=Self service
Update Fuel Prices
 

Would you like to see your business listed on this page?

 If your business provides an interesting product or service to pilots, flight crews, aircraft, or users of the Lee County Airport-Butters Field, you should consider listing it here.  To start the listing process, click on the button below
 
Add a business
 

Other Pages about Lee County Airport-Butters Field

Update a link
 
Copyright © AirNav, LLC. All rights reserved. Privacy Policy  Contact